sensor_id;sensor_type;location;lat;lon;timestamp;pressure;altitude;pressure_sealevel;temperature;humidity
80242;BME280;69556;45.004;7.532;2024-02-16T00:01:57;99111.22;;;6.63;86.36
80242;BME280;69556;45.004;7.532;2024-02-16T00:04:22;99118.31;;;6.55;86.41
80242;BME280;69556;45.004;7.532;2024-02-16T00:06:48;99112.25;;;6.47;85.79
80242;BME280;69556;45.004;7.532;2024-02-16T00:09:14;99114.00;;;6.46;87.20
80242;BME280;69556;45.004;7.532;2024-02-16T00:11:39;99111.44;;;6.43;86.66
80242;BME280;69556;45.004;7.532;2024-02-16T00:14:05;99112.25;;;6.47;87.71
80242;BME280;69556;45.004;7.532;2024-02-16T00:16:30;99117.50;;;6.45;87.18
80242;BME280;69556;45.004;7.532;2024-02-16T00:18:55;99109.59;;;6.50;87.46
80242;BME280;69556;45.004;7.532;2024-02-16T00:21:21;99117.50;;;6.48;86.84
80242;BME280;69556;45.004;7.532;2024-02-16T00:23:46;99110.47;;;6.49;86.37
80242;BME280;69556;45.004;7.532;2024-02-16T00:26:11;99109.59;;;6.50;86.71
80242;BME280;69556;45.004;7.532;2024-02-16T00:28:37;99109.66;;;6.47;87.97
80242;BME280;69556;45.004;7.532;2024-02-16T00:31:02;99112.28;;;6.45;86.78
80242;BME280;69556;45.004;7.532;2024-02-16T00:33:27;99102.66;;;6.44;87.06
80242;BME280;69556;45.004;7.532;2024-02-16T00:35:54;99094.78;;;6.44;87.40
80242;BME280;69556;45.004;7.532;2024-02-16T00:38:19;99094.75;;;6.52;87.09
80242;BME280;69556;45.004;7.532;2024-02-16T00:40:45;99093.88;;;6.50;87.72
80242;BME280;69556;45.004;7.532;2024-02-16T00:43:10;99092.13;;;6.52;87.05
80242;BME280;69556;45.004;7.532;2024-02-16T00:45:36;99086.81;;;6.56;86.51
80242;BME280;69556;45.004;7.532;2024-02-16T00:48:01;99091.19;;;6.56;86.11
80242;BME280;69556;45.004;7.532;2024-02-16T00:50:28;99086.00;;;6.53;85.97
80242;BME280;69556;45.004;7.532;2024-02-16T00:52:54;99082.47;;;6.54;86.00
80242;BME280;69556;45.004;7.532;2024-02-16T00:55:19;99085.97;;;6.54;85.83
80242;BME280;69556;45.004;7.532;2024-02-16T00:57:45;99086.88;;;6.52;86.28
80242;BME280;69556;45.004;7.532;2024-02-16T01:00:11;99079.94;;;6.45;87.16
80242;BME280;69556;45.004;7.532;2024-02-16T01:02:36;99083.47;;;6.44;88.15
80242;BME280;69556;45.004;7.532;2024-02-16T01:05:02;99086.03;;;6.45;87.04
80242;BME280;69556;45.004;7.532;2024-02-16T01:07:28;99075.56;;;6.45;86.48
80242;BME280;69556;45.004;7.532;2024-02-16T01:09:53;99088.72;;;6.44;86.27
80242;BME280;69556;45.004;7.532;2024-02-16T01:12:19;99084.38;;;6.38;86.95
80242;BME280;69556;45.004;7.532;2024-02-16T01:14:44;99087.91;;;6.33;87.56
80242;BME280;69556;45.004;7.532;2024-02-16T01:17:10;99086.19;;;6.30;86.81
80242;BME280;69556;45.004;7.532;2024-02-16T01:19:35;99080.97;;;6.26;87.06
80242;BME280;69556;45.004;7.532;2024-02-16T01:22:00;99082.84;;;6.14;87.79
80242;BME280;69556;45.004;7.532;2024-02-16T01:24:25;99071.53;;;6.09;89.15
80242;BME280;69556;45.004;7.532;2024-02-16T01:26:51;99064.53;;;6.08;89.27
80242;BME280;69556;45.004;7.532;2024-02-16T01:29:17;99067.94;;;6.18;88.48
80242;BME280;69556;45.004;7.532;2024-02-16T01:31:42;99072.34;;;6.13;88.31
80242;BME280;69556;45.004;7.532;2024-02-16T01:34:08;99072.34;;;6.11;88.46
80242;BME280;69556;45.004;7.532;2024-02-16T01:36:33;99071.53;;;6.11;87.76
80242;BME280;69556;45.004;7.532;2024-02-16T01:38:58;99075.03;;;6.08;89.22
80242;BME280;69556;45.004;7.532;2024-02-16T01:41:23;99071.56;;;6.06;88.76
80242;BME280;69556;45.004;7.532;2024-02-16T01:43:52;99071.56;;;6.06;88.29
80242;BME280;69556;45.004;7.532;2024-02-16T01:46:18;99069.84;;;6.01;88.51
80242;BME280;69556;45.004;7.532;2024-02-16T01:48:43;99065.47;;;6.00;89.37
80242;BME280;69556;45.004;7.532;2024-02-16T01:51:09;99066.34;;;6.00;89.11
80242;BME280;69556;45.004;7.532;2024-02-16T01:53:35;99070.66;;;6.07;89.39
80242;BME280;69556;45.004;7.532;2024-02-16T01:56:02;99062.78;;;6.07;90.08
80242;BME280;69556;45.004;7.532;2024-02-16T01:58:28;99059.34;;;6.05;89.77
80242;BME280;69556;45.004;7.532;2024-02-16T02:00:53;99056.72;;;6.04;89.34
80242;BME280;69556;45.004;7.532;2024-02-16T02:03:20;99049.81;;;5.97;90.06
80242;BME280;69556;45.004;7.532;2024-02-16T02:05:45;99053.25;;;6.00;89.55
80242;BME280;69556;45.004;7.532;2024-02-16T02:08:11;99052.41;;;5.95;89.89
80242;BME280;69556;45.004;7.532;2024-02-16T02:10:37;99046.28;;;5.99;89.76
80242;BME280;69556;45.004;7.532;2024-02-16T02:13:02;99049.72;;;6.04;89.53
80242;BME280;69556;45.004;7.532;2024-02-16T02:15:28;99044.53;;;5.98;89.76
80242;BME280;69556;45.004;7.532;2024-02-16T02:17:53;99044.59;;;5.91;89.51
80242;BME280;69556;45.004;7.532;2024-02-16T02:20:19;99052.41;;;5.94;89.62
80242;BME280;69556;45.004;7.532;2024-02-16T02:22:44;99049.84;;;5.92;89.54
80242;BME280;69556;45.004;7.532;2024-02-16T02:25:10;99044.59;;;5.92;89.26
80242;BME280;69556;45.004;7.532;2024-02-16T02:27:36;99042.84;;;5.91;89.25
80242;BME280;69556;45.004;7.532;2024-02-16T02:30:01;99043.72;;;5.84;89.63
80242;BME280;69556;45.004;7.532;2024-02-16T02:32:27;99043.81;;;5.78;89.90
80242;BME280;69556;45.004;7.532;2024-02-16T02:34:53;99040.31;;;5.76;90.77
80242;BME280;69556;45.004;7.532;2024-02-16T02:37:19;99042.06;;;5.77;89.99
80242;BME280;69556;45.004;7.532;2024-02-16T02:39:44;99034.22;;;5.71;90.73
80242;BME280;69556;45.004;7.532;2024-02-16T02:42:09;99037.78;;;5.64;91.65
80242;BME280;69556;45.004;7.532;2024-02-16T02:44:35;99036.91;;;5.62;91.25
80242;BME280;69556;45.004;7.532;2024-02-16T02:47:01;99027.34;;;5.59;92.17
80242;BME280;69556;45.004;7.532;2024-02-16T02:49:26;99020.41;;;5.52;92.40
80242;BME280;69556;45.004;7.532;2024-02-16T02:51:51;99030.00;;;5.52;91.70
80242;BME280;69556;45.004;7.532;2024-02-16T02:54:17;99025.69;;;5.45;92.20
80242;BME280;69556;45.004;7.532;2024-02-16T02:56:43;99026.56;;;5.45;92.37
80242;BME280;69556;45.004;7.532;2024-02-16T02:59:08;99024.75;;;5.53;92.18
80242;BME280;69556;45.004;7.532;2024-02-16T03:01:36;99022.16;;;5.55;91.78
80242;BME280;69556;45.004;7.532;2024-02-16T03:04:02;99028.25;;;5.51;91.82
80242;BME280;69556;45.004;7.532;2024-02-16T03:06:27;99019.63;;;5.40;91.53
80242;BME280;69556;45.004;7.532;2024-02-16T03:08:52;99032.72;;;5.38;92.34
80242;BME280;69556;45.004;7.532;2024-02-16T03:11:17;99016.19;;;5.31;92.22
80242;BME280;69556;45.004;7.532;2024-02-16T03:13:43;99019.69;;;5.30;92.36
80242;BME280;69556;45.004;7.532;2024-02-16T03:16:08;99015.28;;;5.34;92.25
80242;BME280;69556;45.004;7.532;2024-02-16T03:18:34;99020.53;;;5.36;92.22
80242;BME280;69556;45.004;7.532;2024-02-16T03:21:02;99017.91;;;5.36;93.07
80242;BME280;69556;45.004;7.532;2024-02-16T03:23:27;99019.66;;;5.33;92.63
80242;BME280;69556;45.004;7.532;2024-02-16T03:25:53;99022.28;;;5.35;92.68
80242;BME280;69556;45.004;7.532;2024-02-16T03:28:18;99016.19;;;5.28;92.95
80242;BME280;69556;45.004;7.532;2024-02-16T03:30:44;99015.31;;;5.29;92.61
80242;BME280;69556;45.004;7.532;2024-02-16T03:33:10;99016.22;;;5.25;92.40
80242;BME280;69556;45.004;7.532;2024-02-16T03:35:36;99013.59;;;5.24;92.13
80242;BME280;69556;45.004;7.532;2024-02-16T03:38:04;99011.81;;;5.27;91.32
80242;BME280;69556;45.004;7.532;2024-02-16T03:40:30;99015.31;;;5.29;91.36
80242;BME280;69556;45.004;7.532;2024-02-16T03:42:55;99010.13;;;5.26;91.36
80242;BME280;69556;45.004;7.532;2024-02-16T03:45:21;99013.59;;;5.24;91.77
80242;BME280;69556;45.004;7.532;2024-02-16T03:47:47;99013.63;;;5.22;92.05
80242;BME280;69556;45.004;7.532;2024-02-16T03:50:17;99008.41;;;5.22;92.02
80242;BME280;69556;45.004;7.532;2024-02-16T03:52:43;99011.00;;;5.27;91.71
80242;BME280;69556;45.004;7.532;2024-02-16T03:55:08;99009.28;;;5.20;91.47
80242;BME280;69556;45.004;7.532;2024-02-16T03:57:34;99003.97;;;5.30;90.84
80242;BME280;69556;45.004;7.532;2024-02-16T03:59:59;99003.97;;;5.30;90.57
80242;BME280;69556;45.004;7.532;2024-02-16T04:02:24;99002.19;;;5.32;90.78
80242;BME280;69556;45.004;7.532;2024-02-16T04:04:50;98997.81;;;5.41;90.83
80242;BME280;69556;45.004;7.532;2024-02-16T04:07:16;98992.53;;;5.44;90.72
80242;BME280;69556;45.004;7.532;2024-02-16T04:09:42;98991.66;;;5.42;90.20
80242;BME280;69556;45.004;7.532;2024-02-16T04:12:07;98994.31;;;5.40;90.46
80242;BME280;69556;45.004;7.532;2024-02-16T04:14:33;98990.75;;;5.47;90.34
80242;BME280;69556;45.004;7.532;2024-02-16T04:16:59;99001.16;;;5.58;90.22
80242;BME280;69556;45.004;7.532;2024-02-16T04:19:25;98996.72;;;5.66;90.56
80242;BME280;69556;45.004;7.532;2024-02-16T04:21:51;98995.84;;;5.68;90.86
80242;BME280;69556;45.004;7.532;2024-02-16T04:24:16;98995.78;;;5.76;89.76
80242;BME280;69556;45.004;7.532;2024-02-16T04:26:42;98994.88;;;5.78;89.66
80242;BME280;69556;45.004;7.532;2024-02-16T04:29:07;99000.13;;;5.80;90.34
80242;BME280;69556;45.004;7.532;2024-02-16T04:31:32;98998.50;;;5.64;89.73
80242;BME280;69556;45.004;7.532;2024-02-16T04:33:58;98997.75;;;5.48;90.93
80242;BME280;69556;45.004;7.532;2024-02-16T04:36:23;99001.25;;;5.49;90.73
80242;BME280;69556;45.004;7.532;2024-02-16T04:38:49;98998.59;;;5.52;90.24
80242;BME280;69556;45.004;7.532;2024-02-16T04:41:14;99002.03;;;5.57;89.70
80242;BME280;69556;45.004;7.532;2024-02-16T04:43:40;99003.84;;;5.50;89.97
80242;BME280;69556;45.004;7.532;2024-02-16T04:46:06;99003.00;;;5.44;90.15
80242;BME280;69556;45.004;7.532;2024-02-16T04:48:31;99014.34;;;5.43;90.15
80242;BME280;69556;45.004;7.532;2024-02-16T04:50:57;99020.50;;;5.37;89.85
80242;BME280;69556;45.004;7.532;2024-02-16T04:53:22;99016.16;;;5.35;90.30
80242;BME280;69556;45.004;7.532;2024-02-16T04:55:48;99010.94;;;5.36;90.36
80242;BME280;69556;45.004;7.532;2024-02-16T04:58:13;99020.53;;;5.36;90.86
80242;BME280;69556;45.004;7.532;2024-02-16T05:00:38;99014.38;;;5.37;91.05
80242;BME280;69556;45.004;7.532;2024-02-16T05:03:04;99014.41;;;5.33;90.21
80242;BME280;69556;45.004;7.532;2024-02-16T05:05:30;99014.41;;;5.35;90.36
80242;BME280;69556;45.004;7.532;2024-02-16T05:07:58;99016.16;;;5.33;91.48
80242;BME280;69556;45.004;7.532;2024-02-16T05:10:23;99013.53;;;5.33;91.81
80242;BME280;69556;45.004;7.532;2024-02-16T05:12:49;99013.59;;;5.27;91.81
80242;BME280;69556;45.004;7.532;2024-02-16T05:15:14;99013.63;;;5.22;92.17
80242;BME280;69556;45.004;7.532;2024-02-16T05:17:40;99010.13;;;5.26;92.01
80242;BME280;69556;45.004;7.532;2024-02-16T05:20:11;99012.69;;;5.29;92.08
80242;BME280;69556;45.004;7.532;2024-02-16T05:22:43;99007.50;;;5.23;91.63
80242;BME280;69556;45.004;7.532;2024-02-16T05:25:11;99001.38;;;5.23;91.49
80242;BME280;69556;45.004;7.532;2024-02-16T05:27:36;98996.22;;;5.17;91.07
80242;BME280;69556;45.004;7.532;2024-02-16T05:30:03;98995.34;;;5.15;91.03
80242;BME280;69556;45.004;7.532;2024-02-16T05:32:29;98998.84;;;5.12;92.10
80242;BME280;69556;45.004;7.532;2024-02-16T05:34:54;99001.44;;;5.15;92.16
80242;BME280;69556;45.004;7.532;2024-02-16T05:37:20;98996.13;;;5.27;91.34
80242;BME280;69556;45.004;7.532;2024-02-16T05:39:47;98990.81;;;5.40;90.06
80242;BME280;69556;45.004;7.532;2024-02-16T05:42:33;98997.78;;;5.45;90.67
80242;BME280;69556;45.004;7.532;2024-02-16T05:44:58;99006.50;;;5.44;89.19
80242;BME280;69556;45.004;7.532;2024-02-16T05:47:24;99009.19;;;5.35;90.05
80242;BME280;69556;45.004;7.532;2024-02-16T05:49:49;99014.44;;;5.27;89.70
80242;BME280;69556;45.004;7.532;2024-02-16T05:52:15;99012.72;;;5.23;89.74
80242;BME280;69556;45.004;7.532;2024-02-16T05:54:46;99011.13;;;5.01;89.66
80242;BME280;69556;45.004;7.532;2024-02-16T05:57:15;99011.19;;;4.87;90.23
80242;BME280;69556;45.004;7.532;2024-02-16T05:59:41;99018.16;;;4.87;91.13
80242;BME280;69556;45.004;7.532;2024-02-16T06:02:07;99004.25;;;4.80;91.16
80242;BME280;69556;45.004;7.532;2024-02-16T06:04:33;99005.13;;;4.76;91.72
80242;BME280;69556;45.004;7.532;2024-02-16T06:06:58;99005.13;;;4.78;91.99
80242;BME280;69556;45.004;7.532;2024-02-16T06:09:24;99007.78;;;4.66;90.74
80242;BME280;69556;45.004;7.532;2024-02-16T06:11:49;99006.06;;;4.59;92.17
80242;BME280;69556;45.004;7.532;2024-02-16T06:14:14;98998.22;;;4.53;91.99
80242;BME280;69556;45.004;7.532;2024-02-16T06:16:40;98992.16;;;4.51;92.67
80242;BME280;69556;45.004;7.532;2024-02-16T06:19:07;98999.13;;;4.46;92.91
80242;BME280;69556;45.004;7.532;2024-02-16T06:21:34;99000.00;;;4.48;92.65
80242;BME280;69556;45.004;7.532;2024-02-16T06:23:59;99009.59;;;4.46;93.22
80242;BME280;69556;45.004;7.532;2024-02-16T06:26:24;99002.59;;;4.49;93.94
80242;BME280;69556;45.004;7.532;2024-02-16T06:28:50;99010.47;;;4.48;93.82
80242;BME280;69556;45.004;7.532;2024-02-16T06:31:15;99013.09;;;4.48;93.14
80242;BME280;69556;45.004;7.532;2024-02-16T06:33:40;99006.06;;;4.53;93.35
80242;BME280;69556;45.004;7.532;2024-02-16T06:36:06;99010.47;;;4.48;93.74
80242;BME280;69556;45.004;7.532;2024-02-16T06:38:32;99007.84;;;4.46;94.13
80242;BME280;69556;45.004;7.532;2024-02-16T06:40:57;99016.56;;;4.47;93.85
80242;BME280;69556;45.004;7.532;2024-02-16T06:43:22;99020.03;;;4.46;92.50
80242;BME280;69556;45.004;7.532;2024-02-16T06:45:48;99022.66;;;4.39;93.18
80242;BME280;69556;45.004;7.532;2024-02-16T06:48:13;99021.81;;;4.37;93.33
80242;BME280;69556;45.004;7.532;2024-02-16T06:50:38;99028.75;;;4.40;93.65
80242;BME280;69556;45.004;7.532;2024-02-16T06:53:04;99030.47;;;4.49;93.58
80242;BME280;69556;45.004;7.532;2024-02-16T06:55:29;99027.00;;;4.57;92.97
80242;BME280;69556;45.004;7.532;2024-02-16T06:57:54;99032.22;;;4.57;93.71
80242;BME280;69556;45.004;7.532;2024-02-16T07:00:21;99033.97;;;4.57;93.49
80242;BME280;69556;45.004;7.532;2024-02-16T07:02:46;99033.06;;;4.59;93.40
80242;BME280;69556;45.004;7.532;2024-02-16T07:05:12;99027.81;;;4.62;93.92
80242;BME280;69556;45.004;7.532;2024-02-16T07:07:38;99026.94;;;4.74;93.92
80242;BME280;69556;45.004;7.532;2024-02-16T07:10:03;99027.78;;;4.79;93.37
80242;BME280;69556;45.004;7.532;2024-02-16T07:12:30;99039.06;;;4.92;92.73
80242;BME280;69556;45.004;7.532;2024-02-16T07:14:55;99036.44;;;4.98;92.35
80242;BME280;69556;45.004;7.532;2024-02-16T07:17:26;99041.66;;;4.95;91.63
80242;BME280;69556;45.004;7.532;2024-02-16T07:19:52;99039.88;;;5.00;92.11
80242;BME280;69556;45.004;7.532;2024-02-16T07:22:18;99032.03;;;5.06;91.74
80242;BME280;69556;45.004;7.532;2024-02-16T07:24:43;99045.09;;;5.12;92.19
80242;BME280;69556;45.004;7.532;2024-02-16T07:27:08;99038.94;;;5.17;92.07
80242;BME280;69556;45.004;7.532;2024-02-16T07:29:34;99033.66;;;5.25;91.72
80242;BME280;69556;45.004;7.532;2024-02-16T07:32:01;99037.06;;;5.38;91.43
80242;BME280;69556;45.004;7.532;2024-02-16T07:34:26;99041.41;;;5.42;91.21
80242;BME280;69556;45.004;7.532;2024-02-16T07:36:52;99044.00;;;5.49;91.27
80242;BME280;69556;45.004;7.532;2024-02-16T07:39:18;99047.50;;;5.48;91.44
80242;BME280;69556;45.004;7.532;2024-02-16T07:41:44;99037.00;;;5.47;90.43
80242;BME280;69556;45.004;7.532;2024-02-16T07:44:09;99049.22;;;5.48;89.77
80242;BME280;69556;45.004;7.532;2024-02-16T07:46:40;99044.84;;;5.51;89.92
80242;BME280;69556;45.004;7.532;2024-02-16T07:49:05;99043.09;;;5.52;90.42
80242;BME280;69556;45.004;7.532;2024-02-16T07:51:30;99041.34;;;5.51;90.54
80242;BME280;69556;45.004;7.532;2024-02-16T07:53:56;99040.41;;;5.64;90.28
80242;BME280;69556;45.004;7.532;2024-02-16T07:56:21;99051.66;;;5.75;89.33
80242;BME280;69556;45.004;7.532;2024-02-16T07:58:46;99046.38;;;5.83;89.81
80242;BME280;69556;45.004;7.532;2024-02-16T08:01:12;99050.72;;;5.91;89.56
80242;BME280;69556;45.004;7.532;2024-02-16T08:03:40;99052.34;;;6.06;89.91
80242;BME280;69556;45.004;7.532;2024-02-16T08:06:06;99043.56;;;6.08;90.15
80242;BME280;69556;45.004;7.532;2024-02-16T08:08:34;99049.56;;;6.24;89.09
80242;BME280;69556;45.004;7.532;2024-02-16T08:10:59;99045.06;;;6.35;88.87
80242;BME280;69556;45.004;7.532;2024-02-16T08:13:25;99046.72;;;6.47;88.78
80242;BME280;69556;45.004;7.532;2024-02-16T08:15:50;99044.78;;;6.62;88.19
80242;BME280;69556;45.004;7.532;2024-02-16T08:18:17;99044.59;;;6.79;87.03
80242;BME280;69556;45.004;7.532;2024-02-16T08:20:43;99047.06;;;6.93;87.03
80242;BME280;69556;45.004;7.532;2024-02-16T08:23:08;99045.16;;;7.05;87.09
80242;BME280;69556;45.004;7.532;2024-02-16T08:25:33;99046.78;;;7.16;86.48
80242;BME280;69556;45.004;7.532;2024-02-16T08:27:59;99053.59;;;7.29;86.68
80242;BME280;69556;45.004;7.532;2024-02-16T08:30:25;99046.47;;;7.38;86.30
80242;BME280;69556;45.004;7.532;2024-02-16T08:32:50;99050.78;;;7.44;84.95
80242;BME280;69556;45.004;7.532;2024-02-16T08:35:17;99039.25;;;7.56;84.57
80242;BME280;69556;45.004;7.532;2024-02-16T08:37:43;99040.00;;;7.61;84.12
80242;BME280;69556;45.004;7.532;2024-02-16T08:40:09;99043.34;;;7.73;84.94
80242;BME280;69556;45.004;7.532;2024-02-16T08:42:40;99042.31;;;7.83;85.50
80242;BME280;69556;45.004;7.532;2024-02-16T08:45:06;99036.88;;;7.94;85.30
80242;BME280;69556;45.004;7.532;2024-02-16T08:47:31;99042.91;;;8.02;85.82
80242;BME280;69556;45.004;7.532;2024-02-16T08:49:57;99037.44;;;8.13;84.89
80242;BME280;69556;45.004;7.532;2024-02-16T08:52:22;99045.13;;;8.25;84.75
80242;BME280;69556;45.004;7.532;2024-02-16T08:54:48;99045.16;;;8.23;85.47
80242;BME280;69556;45.004;7.532;2024-02-16T08:57:13;99045.97;;;8.30;85.80
80242;BME280;69556;45.004;7.532;2024-02-16T08:59:38;99039.75;;;8.32;85.57
80242;BME280;69556;45.004;7.532;2024-02-16T09:02:04;99051.94;;;8.38;85.17
80242;BME280;69556;45.004;7.532;2024-02-16T09:04:29;99049.31;;;8.38;84.58
80242;BME280;69556;45.004;7.532;2024-02-16T09:06:54;99048.22;;;8.50;85.20
80242;BME280;69556;45.004;7.532;2024-02-16T09:09:20;99053.19;;;8.65;84.65
80242;BME280;69556;45.004;7.532;2024-02-16T09:11:45;99051.25;;;8.74;84.05
80242;BME280;69556;45.004;7.532;2024-02-16T09:14:10;99049.41;;;8.79;83.01
80242;BME280;69556;45.004;7.532;2024-02-16T09:16:36;99051.84;;;8.89;83.21
80242;BME280;69556;45.004;7.532;2024-02-16T09:19:01;99053.41;;;8.99;84.19
80242;BME280;69556;45.004;7.532;2024-02-16T09:21:27;99050.97;;;8.90;82.84
80242;BME280;69556;45.004;7.532;2024-02-16T09:23:55;99050.78;;;8.99;82.80
80242;BME280;69556;45.004;7.532;2024-02-16T09:26:24;99048.97;;;9.01;84.00
80242;BME280;69556;45.004;7.532;2024-02-16T09:28:52;99054.19;;;9.04;84.40
80242;BME280;69556;45.004;7.532;2024-02-16T09:31:18;99046.28;;;9.04;83.76
80242;BME280;69556;45.004;7.532;2024-02-16T09:33:43;99048.84;;;9.08;83.78
80242;BME280;69556;45.004;7.532;2024-02-16T09:36:09;99054.81;;;9.16;82.98
80242;BME280;69556;45.004;7.532;2024-02-16T09:38:34;99056.38;;;9.25;82.54
80242;BME280;69556;45.004;7.532;2024-02-16T09:41:00;99057.16;;;9.30;82.57
80242;BME280;69556;45.004;7.532;2024-02-16T09:43:28;99053.41;;;9.40;82.64
80242;BME280;69556;45.004;7.532;2024-02-16T09:45:59;99053.22;;;9.49;81.76
80242;BME280;69556;45.004;7.532;2024-02-16T09:48:27;99056.66;;;9.53;82.23
80242;BME280;69556;45.004;7.532;2024-02-16T09:50:57;99055.84;;;9.51;81.77
80242;BME280;69556;45.004;7.532;2024-02-16T09:53:28;99055.75;;;9.54;80.86
80242;BME280;69556;45.004;7.532;2024-02-16T09:55:54;99060.13;;;9.55;80.76
80242;BME280;69556;45.004;7.532;2024-02-16T09:58:20;99053.69;;;9.66;80.61
80242;BME280;69556;45.004;7.532;2024-02-16T10:00:53;99067.38;;;9.84;79.86
80242;BME280;69556;45.004;7.532;2024-02-16T10:03:43;99070.69;;;9.92;79.46
80242;BME280;69556;45.004;7.532;2024-02-16T10:06:11;99071.59;;;9.91;80.59
80242;BME280;69556;45.004;7.532;2024-02-16T10:08:54;99071.47;;;9.95;79.36
80242;BME280;69556;45.004;7.532;2024-02-16T10:11:21;99069.50;;;10.05;79.45
80242;BME280;69556;45.004;7.532;2024-02-16T10:16:22;99071.00;;;10.15;78.19
80242;BME280;69556;45.004;7.532;2024-02-16T10:18:47;99072.47;;;10.28;79.66
80242;BME280;69556;45.004;7.532;2024-02-16T10:21:13;99073.31;;;10.30;78.57
80242;BME280;69556;45.004;7.532;2024-02-16T10:23:38;99075.59;;;10.44;78.08
80242;BME280;69556;45.004;7.532;2024-02-16T10:26:03;99083.31;;;10.51;77.59
80242;BME280;69556;45.004;7.532;2024-02-16T10:28:29;99087.78;;;10.49;77.10
80242;BME280;69556;45.004;7.532;2024-02-16T10:31:00;99086.78;;;10.53;77.03
80242;BME280;69556;45.004;7.532;2024-02-16T10:33:31;99087.47;;;10.60;79.45
80242;BME280;69556;45.004;7.532;2024-02-16T10:35:57;99081.97;;;10.69;78.73
80242;BME280;69556;45.004;7.532;2024-02-16T10:38:24;99093.16;;;10.79;77.83
80242;BME280;69556;45.004;7.532;2024-02-16T10:40:52;99087.88;;;10.79;76.90
80242;BME280;69556;45.004;7.532;2024-02-16T10:43:20;99088.69;;;10.82;77.05
80242;BME280;69556;45.004;7.532;2024-02-16T10:45:46;99089.19;;;10.95;76.79
80242;BME280;69556;45.004;7.532;2024-02-16T10:48:14;99085.69;;;10.94;75.84
80242;BME280;69556;45.004;7.532;2024-02-16T10:50:40;99087.63;;;10.88;77.34
80242;BME280;69556;45.004;7.532;2024-02-16T10:53:17;99087.47;;;10.94;75.83
80242;BME280;69556;45.004;7.532;2024-02-16T10:55:43;99079.63;;;10.91;75.53
80242;BME280;69556;45.004;7.532;2024-02-16T10:58:11;99085.66;;;10.96;75.66
80242;BME280;69556;45.004;7.532;2024-02-16T11:00:50;99077.41;;;11.07;75.19
80242;BME280;69556;45.004;7.532;2024-02-16T11:03:17;99080.72;;;11.15;75.03
80242;BME280;69556;45.004;7.532;2024-02-16T11:05:43;99078.53;;;10.98;76.08
80242;BME280;69556;45.004;7.532;2024-02-16T11:08:15;99082.06;;;10.98;75.23
80242;BME280;69556;45.004;7.532;2024-02-16T11:10:54;99066.56;;;11.17;75.54
80242;BME280;69556;45.004;7.532;2024-02-16T11:13:24;99070.22;;;11.12;75.21
80242;BME280;69556;45.004;7.532;2024-02-16T11:16:00;99066.91;;;11.34;76.21
80242;BME280;69556;45.004;7.532;2024-02-16T11:18:27;99064.81;;;11.47;75.58
80242;BME280;69556;45.004;7.532;2024-02-16T11:20:53;99064.56;;;11.55;73.97
80242;BME280;69556;45.004;7.532;2024-02-16T11:23:28;99065.44;;;11.55;74.30
80242;BME280;69556;45.004;7.532;2024-02-16T11:26:00;99051.91;;;11.66;74.78
80242;BME280;69556;45.004;7.532;2024-02-16T11:28:27;99055.25;;;11.71;72.80
80242;BME280;69556;45.004;7.532;2024-02-16T11:30:53;99046.38;;;11.72;72.57
80242;BME280;69556;45.004;7.532;2024-02-16T11:33:18;99045.38;;;11.77;72.90
80242;BME280;69556;45.004;7.532;2024-02-16T11:35:59;99045.94;;;11.87;71.97
80242;BME280;69556;45.004;7.532;2024-02-16T11:38:26;99050.31;;;11.89;71.00
80242;BME280;69556;45.004;7.532;2024-02-16T11:40:59;99038.41;;;12.03;70.49
80242;BME280;69556;45.004;7.532;2024-02-16T11:43:27;99034.44;;;12.16;70.56
80242;BME280;69556;45.004;7.532;2024-02-16T11:45:53;99031.47;;;12.25;69.07
80242;BME280;69556;45.004;7.532;2024-02-16T11:48:19;99023.19;;;12.35;68.05
80242;BME280;69556;45.004;7.532;2024-02-16T11:50:46;99027.66;;;12.33;68.46
80242;BME280;69556;45.004;7.532;2024-02-16T11:53:17;99027.88;;;12.52;67.67
80242;BME280;69556;45.004;7.532;2024-02-16T11:55:49;99027.25;;;12.70;67.91
80242;BME280;69556;45.004;7.532;2024-02-16T11:58:17;99027.41;;;12.66;66.14
80242;BME280;69556;45.004;7.532;2024-02-16T12:00:48;99014.38;;;12.60;65.79
80242;BME280;69556;45.004;7.532;2024-02-16T12:03:23;99024.16;;;12.58;65.83
80242;BME280;69556;45.004;7.532;2024-02-16T12:05:58;99022.94;;;12.68;65.47
80242;BME280;69556;45.004;7.532;2024-02-16T12:08:24;99012.59;;;12.60;65.83
80242;BME280;69556;45.004;7.532;2024-02-16T12:10:50;99017.47;;;12.72;65.18
80242;BME280;69556;45.004;7.532;2024-02-16T12:13:19;99015.56;;;12.76;64.82
80242;BME280;69556;45.004;7.532;2024-02-16T12:15:46;99008.88;;;12.66;65.39
80242;BME280;69556;45.004;7.532;2024-02-16T12:18:22;99007.28;;;12.85;65.57
80242;BME280;69556;45.004;7.532;2024-02-16T12:21:05;99010.63;;;12.90;65.69
80242;BME280;69556;45.004;7.532;2024-02-16T12:23:31;98998.88;;;12.97;65.93
80242;BME280;69556;45.004;7.532;2024-02-16T12:26:00;98991.94;;;12.95;66.25
80242;BME280;69556;45.004;7.532;2024-02-16T12:28:27;99001.91;;;13.11;65.43
80242;BME280;69556;45.004;7.532;2024-02-16T12:30:54;98998.91;;;13.20;65.32
80242;BME280;69556;45.004;7.532;2024-02-16T12:33:20;98986.63;;;13.19;64.94
80242;BME280;69556;45.004;7.532;2024-02-16T12:35:45;98993.75;;;13.17;65.45
80242;BME280;69556;45.004;7.532;2024-02-16T12:38:11;98986.09;;;13.08;64.92
80242;BME280;69556;45.004;7.532;2024-02-16T12:40:36;98984.75;;;13.21;66.39
80242;BME280;69556;45.004;7.532;2024-02-16T12:43:02;98990.19;;;13.18;66.34
80242;BME280;69556;45.004;7.532;2024-02-16T12:45:27;98987.47;;;13.20;64.45
80242;BME280;69556;45.004;7.532;2024-02-16T12:47:52;98984.75;;;13.21;65.50
80242;BME280;69556;45.004;7.532;2024-02-16T12:50:18;98987.19;;;13.28;66.03
80242;BME280;69556;45.004;7.532;2024-02-16T12:52:44;98976.06;;;13.18;64.58
80242;BME280;69556;45.004;7.532;2024-02-16T12:55:09;98973.56;;;13.37;65.28
80242;BME280;69556;45.004;7.532;2024-02-16T12:57:38;98977.88;;;13.39;65.19
80242;BME280;69556;45.004;7.532;2024-02-16T13:00:04;98970.09;;;13.35;65.97
80242;BME280;69556;45.004;7.532;2024-02-16T13:02:30;98969.00;;;13.40;64.74
80242;BME280;69556;45.004;7.532;2024-02-16T13:04:56;98971.00;;;13.57;67.02
80242;BME280;69556;45.004;7.532;2024-02-16T13:07:21;98969.22;;;13.57;65.33